sensor_id;sensor_type;location;lat;lon;timestamp;temperature;humidity
15113;DHT22;7657;50.140;7.076;2023-02-25T00:01:05;4.60;99.90
15113;DHT22;7657;50.140;7.076;2023-02-25T00:03:32;4.50;99.90
15113;DHT22;7657;50.140;7.076;2023-02-25T00:06:00;4.60;99.90
15113;DHT22;7657;50.140;7.076;2023-02-25T00:08:27;4.70;99.90
15113;DHT22;7657;50.140;7.076;2023-02-25T00:10:58;4.60;99.90
15113;DHT22;7657;50.140;7.076;2023-02-25T00:13:26;4.50;99.90
15113;DHT22;7657;50.140;7.076;2023-02-25T00:15:53;4.50;99.90
15113;DHT22;7657;50.140;7.076;2023-02-25T00:18:24;4.60;99.90
15113;DHT22;7657;50.140;7.076;2023-02-25T00:20:51;4.50;99.90
15113;DHT22;7657;50.140;7.076;2023-02-25T00:23:17;4.60;99.90
15113;DHT22;7657;50.140;7.076;2023-02-25T00:25:44;4.70;99.90
15113;DHT22;7657;50.140;7.076;2023-02-25T00:28:12;4.60;99.90
15113;DHT22;7657;50.140;7.076;2023-02-25T00:30:40;4.50;99.90
15113;DHT22;7657;50.140;7.076;2023-02-25T00:33:07;4.50;99.90
15113;DHT22;7657;50.140;7.076;2023-02-25T00:35:39;4.60;99.90
15113;DHT22;7657;50.140;7.076;2023-02-25T00:38:06;4.60;99.90
15113;DHT22;7657;50.140;7.076;2023-02-25T00:40:36;4.50;99.90
15113;DHT22;7657;50.140;7.076;2023-02-25T00:43:03;4.50;99.90
15113;DHT22;7657;50.140;7.076;2023-02-25T00:45:30;4.60;99.90
15113;DHT22;7657;50.140;7.076;2023-02-25T00:47:57;4.70;99.90
15113;DHT22;7657;50.140;7.076;2023-02-25T00:50:24;4.60;99.90
15113;DHT22;7657;50.140;7.076;2023-02-25T00:52:52;4.60;99.90
15113;DHT22;7657;50.140;7.076;2023-02-25T00:55:19;4.50;99.90
15113;DHT22;7657;50.140;7.076;2023-02-25T00:57:46;4.50;99.90
15113;DHT22;7657;50.140;7.076;2023-02-25T01:00:13;4.50;99.90
15113;DHT22;7657;50.140;7.076;2023-02-25T01:02:41;4.40;99.90
15113;DHT22;7657;50.140;7.076;2023-02-25T01:05:10;4.40;99.90
15113;DHT22;7657;50.140;7.076;2023-02-25T01:07:36;4.50;99.90
15113;DHT22;7657;50.140;7.076;2023-02-25T01:10:06;4.50;99.90
15113;DHT22;7657;50.140;7.076;2023-02-25T01:12:35;4.40;99.90
15113;DHT22;7657;50.140;7.076;2023-02-25T01:15:02;4.50;99.90
15113;DHT22;7657;50.140;7.076;2023-02-25T01:17:29;4.60;99.90
15113;DHT22;7657;50.140;7.076;2023-02-25T01:19:56;4.60;99.90
15113;DHT22;7657;50.140;7.076;2023-02-25T01:22:23;4.70;99.90
15113;DHT22;7657;50.140;7.076;2023-02-25T01:24:53;4.60;99.90
15113;DHT22;7657;50.140;7.076;2023-02-25T01:27:21;4.60;99.90
15113;DHT22;7657;50.140;7.076;2023-02-25T01:29:48;4.70;99.90
15113;DHT22;7657;50.140;7.076;2023-02-25T01:32:15;4.70;99.90
15113;DHT22;7657;50.140;7.076;2023-02-25T01:34:42;4.70;99.90
15113;DHT22;7657;50.140;7.076;2023-02-25T01:37:09;4.70;99.90
15113;DHT22;7657;50.140;7.076;2023-02-25T01:39:36;4.60;99.90
15113;DHT22;7657;50.140;7.076;2023-02-25T01:42:10;4.50;99.90
15113;DHT22;7657;50.140;7.076;2023-02-25T01:48:05;4.40;99.90
15113;DHT22;7657;50.140;7.076;2023-02-25T01:50:39;4.50;99.90
15113;DHT22;7657;50.140;7.076;2023-02-25T01:53:07;4.40;99.90
15113;DHT22;7657;50.140;7.076;2023-02-25T01:55:34;4.40;99.90
15113;DHT22;7657;50.140;7.076;2023-02-25T01:58:01;4.40;99.90
15113;DHT22;7657;50.140;7.076;2023-02-25T02:00:30;4.50;99.90
15113;DHT22;7657;50.140;7.076;2023-02-25T02:02:59;4.50;99.90
15113;DHT22;7657;50.140;7.076;2023-02-25T02:05:37;4.60;99.90
15113;DHT22;7657;50.140;7.076;2023-02-25T02:08:06;4.60;99.90
15113;DHT22;7657;50.140;7.076;2023-02-25T02:10:34;4.60;99.90
15113;DHT22;7657;50.140;7.076;2023-02-25T02:13:01;4.60;99.90
15113;DHT22;7657;50.140;7.076;2023-02-25T02:15:33;4.60;99.90
15113;DHT22;7657;50.140;7.076;2023-02-25T02:18:06;4.60;99.90
15113;DHT22;7657;50.140;7.076;2023-02-25T02:20:42;4.50;99.90
15113;DHT22;7657;50.140;7.076;2023-02-25T02:23:38;4.50;99.90
15113;DHT22;7657;50.140;7.076;2023-02-25T02:26:35;4.50;99.90
15113;DHT22;7657;50.140;7.076;2023-02-25T02:32:17;4.70;99.90
15113;DHT22;7657;50.140;7.076;2023-02-25T02:34:51;4.60;99.90
15113;DHT22;7657;50.140;7.076;2023-02-25T02:37:28;4.50;99.90
15113;DHT22;7657;50.140;7.076;2023-02-25T02:40:05;4.50;99.90
15113;DHT22;7657;50.140;7.076;2023-02-25T02:42:39;4.40;99.90
15113;DHT22;7657;50.140;7.076;2023-02-25T02:45:15;4.40;99.90
15113;DHT22;7657;50.140;7.076;2023-02-25T02:47:48;4.30;99.90
15113;DHT22;7657;50.140;7.076;2023-02-25T02:50:22;4.20;99.90
15113;DHT22;7657;50.140;7.076;2023-02-25T02:52:56;4.20;99.90
15113;DHT22;7657;50.140;7.076;2023-02-25T02:55:26;4.20;99.90
15113;DHT22;7657;50.140;7.076;2023-02-25T02:57:59;4.30;99.90
15113;DHT22;7657;50.140;7.076;2023-02-25T03:00:35;4.40;99.90
15113;DHT22;7657;50.140;7.076;2023-02-25T03:03:07;4.40;99.90
15113;DHT22;7657;50.140;7.076;2023-02-25T03:05:36;4.20;99.90
15113;DHT22;7657;50.140;7.076;2023-02-25T03:08:07;4.20;99.90
15113;DHT22;7657;50.140;7.076;2023-02-25T03:10:36;4.10;99.90
15113;DHT22;7657;50.140;7.076;2023-02-25T03:13:03;4.20;99.90
15113;DHT22;7657;50.140;7.076;2023-02-25T03:15:31;4.20;99.90
15113;DHT22;7657;50.140;7.076;2023-02-25T03:18:04;4.10;99.90
15113;DHT22;7657;50.140;7.076;2023-02-25T03:20:35;3.90;99.90
15113;DHT22;7657;50.140;7.076;2023-02-25T03:23:06;3.70;99.90
15113;DHT22;7657;50.140;7.076;2023-02-25T03:25:39;3.70;99.90
15113;DHT22;7657;50.140;7.076;2023-02-25T03:28:23;3.80;99.90
15113;DHT22;7657;50.140;7.076;2023-02-25T03:30:56;3.70;99.90
15113;DHT22;7657;50.140;7.076;2023-02-25T03:33:29;3.60;99.90
15113;DHT22;7657;50.140;7.076;2023-02-25T03:36:02;3.60;99.90
15113;DHT22;7657;50.140;7.076;2023-02-25T03:38:31;3.60;99.90
15113;DHT22;7657;50.140;7.076;2023-02-25T03:41:03;3.60;99.90
15113;DHT22;7657;50.140;7.076;2023-02-25T03:43:36;3.70;99.90
15113;DHT22;7657;50.140;7.076;2023-02-25T03:46:04;3.60;99.90
15113;DHT22;7657;50.140;7.076;2023-02-25T03:48:34;3.60;99.90
15113;DHT22;7657;50.140;7.076;2023-02-25T03:51:04;3.50;99.90
15113;DHT22;7657;50.140;7.076;2023-02-25T03:53:32;3.60;99.90
15113;DHT22;7657;50.140;7.076;2023-02-25T03:56:02;3.70;99.90
15113;DHT22;7657;50.140;7.076;2023-02-25T03:58:30;3.70;99.90
15113;DHT22;7657;50.140;7.076;2023-02-25T04:00:59;3.90;99.90
15113;DHT22;7657;50.140;7.076;2023-02-25T04:03:28;3.90;99.90
15113;DHT22;7657;50.140;7.076;2023-02-25T04:05:57;3.90;99.90
15113;DHT22;7657;50.140;7.076;2023-02-25T04:08:24;3.90;99.90
15113;DHT22;7657;50.140;7.076;2023-02-25T04:10:51;4.10;99.90
15113;DHT22;7657;50.140;7.076;2023-02-25T04:13:18;4.20;99.90
15113;DHT22;7657;50.140;7.076;2023-02-25T04:15:46;4.20;99.90
15113;DHT22;7657;50.140;7.076;2023-02-25T04:18:13;4.20;99.90
15113;DHT22;7657;50.140;7.076;2023-02-25T04:20:40;4.20;99.90
15113;DHT22;7657;50.140;7.076;2023-02-25T04:23:11;4.20;99.90
15113;DHT22;7657;50.140;7.076;2023-02-25T04:25:39;4.20;99.90
15113;DHT22;7657;50.140;7.076;2023-02-25T04:28:06;4.20;99.90
15113;DHT22;7657;50.140;7.076;2023-02-25T04:30:33;4.20;99.90
15113;DHT22;7657;50.140;7.076;2023-02-25T04:32:59;4.30;99.90
15113;DHT22;7657;50.140;7.076;2023-02-25T04:35:26;4.20;99.90
15113;DHT22;7657;50.140;7.076;2023-02-25T04:37:53;4.10;99.90
15113;DHT22;7657;50.140;7.076;2023-02-25T04:40:22;4.00;99.90
15113;DHT22;7657;50.140;7.076;2023-02-25T04:42:49;3.90;99.90
15113;DHT22;7657;50.140;7.076;2023-02-25T04:45:16;4.10;99.90
15113;DHT22;7657;50.140;7.076;2023-02-25T04:47:43;4.10;99.90
15113;DHT22;7657;50.140;7.076;2023-02-25T04:50:11;4.10;99.90
15113;DHT22;7657;50.140;7.076;2023-02-25T04:52:38;4.00;99.90
15113;DHT22;7657;50.140;7.076;2023-02-25T04:55:06;4.00;99.90
15113;DHT22;7657;50.140;7.076;2023-02-25T04:57:36;4.10;99.90
15113;DHT22;7657;50.140;7.076;2023-02-25T05:00:09;4.20;99.90
15113;DHT22;7657;50.140;7.076;2023-02-25T05:02:40;4.10;99.90
15113;DHT22;7657;50.140;7.076;2023-02-25T05:05:08;4.10;99.90
15113;DHT22;7657;50.140;7.076;2023-02-25T05:07:35;4.00;99.90
15113;DHT22;7657;50.140;7.076;2023-02-25T05:10:02;4.10;99.90
15113;DHT22;7657;50.140;7.076;2023-02-25T05:12:29;4.20;99.90
15113;DHT22;7657;50.140;7.076;2023-02-25T05:14:57;4.20;99.90
15113;DHT22;7657;50.140;7.076;2023-02-25T05:17:24;4.20;99.90
15113;DHT22;7657;50.140;7.076;2023-02-25T05:19:51;4.10;99.90
15113;DHT22;7657;50.140;7.076;2023-02-25T05:22:18;4.10;99.90
15113;DHT22;7657;50.140;7.076;2023-02-25T05:24:45;4.20;99.90
15113;DHT22;7657;50.140;7.076;2023-02-25T05:27:12;4.20;99.90
15113;DHT22;7657;50.140;7.076;2023-02-25T05:29:39;4.30;99.90
15113;DHT22;7657;50.140;7.076;2023-02-25T05:32:07;4.10;99.90
15113;DHT22;7657;50.140;7.076;2023-02-25T05:34:34;4.20;99.90
15113;DHT22;7657;50.140;7.076;2023-02-25T05:37:01;4.20;99.90
15113;DHT22;7657;50.140;7.076;2023-02-25T05:39:28;4.30;99.90
15113;DHT22;7657;50.140;7.076;2023-02-25T05:41:55;4.20;99.90
15113;DHT22;7657;50.140;7.076;2023-02-25T05:44:21;4.30;99.90
15113;DHT22;7657;50.140;7.076;2023-02-25T05:46:48;4.10;99.90
15113;DHT22;7657;50.140;7.076;2023-02-25T05:49:16;4.10;99.90
15113;DHT22;7657;50.140;7.076;2023-02-25T05:51:43;4.10;99.90
15113;DHT22;7657;50.140;7.076;2023-02-25T05:54:10;4.20;99.90
15113;DHT22;7657;50.140;7.076;2023-02-25T05:56:37;4.10;99.90
15113;DHT22;7657;50.140;7.076;2023-02-25T05:59:04;4.10;99.90
15113;DHT22;7657;50.140;7.076;2023-02-25T06:01:31;4.10;99.90
15113;DHT22;7657;50.140;7.076;2023-02-25T06:03:58;4.00;99.90
15113;DHT22;7657;50.140;7.076;2023-02-25T06:06:28;4.00;99.90
15113;DHT22;7657;50.140;7.076;2023-02-25T06:08:56;3.70;99.90
15113;DHT22;7657;50.140;7.076;2023-02-25T06:11:25;3.70;99.90
15113;DHT22;7657;50.140;7.076;2023-02-25T06:13:54;3.70;99.90
15113;DHT22;7657;50.140;7.076;2023-02-25T06:16:22;3.60;99.90
15113;DHT22;7657;50.140;7.076;2023-02-25T06:18:50;3.60;99.90
15113;DHT22;7657;50.140;7.076;2023-02-25T06:21:17;3.50;99.90
15113;DHT22;7657;50.140;7.076;2023-02-25T06:23:46;3.50;99.90
15113;DHT22;7657;50.140;7.076;2023-02-25T06:26:15;3.60;99.90
15113;DHT22;7657;50.140;7.076;2023-02-25T06:28:42;3.60;99.90
15113;DHT22;7657;50.140;7.076;2023-02-25T06:31:10;3.60;99.90
15113;DHT22;7657;50.140;7.076;2023-02-25T06:33:38;3.50;99.90
15113;DHT22;7657;50.140;7.076;2023-02-25T06:36:06;3.50;99.90
15113;DHT22;7657;50.140;7.076;2023-02-25T06:38:34;3.40;99.90
15113;DHT22;7657;50.140;7.076;2023-02-25T06:41:05;3.30;99.90
15113;DHT22;7657;50.140;7.076;2023-02-25T06:43:33;3.30;99.90
15113;DHT22;7657;50.140;7.076;2023-02-25T06:46:03;3.40;99.90
15113;DHT22;7657;50.140;7.076;2023-02-25T06:48:30;3.40;99.90
15113;DHT22;7657;50.140;7.076;2023-02-25T06:50:57;3.30;99.90
15113;DHT22;7657;50.140;7.076;2023-02-25T06:53:24;3.30;99.90
15113;DHT22;7657;50.140;7.076;2023-02-25T06:55:51;3.40;99.90
15113;DHT22;7657;50.140;7.076;2023-02-25T06:58:19;3.30;99.90
15113;DHT22;7657;50.140;7.076;2023-02-25T07:00:46;3.40;99.90
15113;DHT22;7657;50.140;7.076;2023-02-25T07:03:13;3.50;99.90
15113;DHT22;7657;50.140;7.076;2023-02-25T07:05:41;3.60;99.90
15113;DHT22;7657;50.140;7.076;2023-02-25T07:08:08;3.70;99.90
15113;DHT22;7657;50.140;7.076;2023-02-25T07:10:35;3.50;99.90
15113;DHT22;7657;50.140;7.076;2023-02-25T07:13:05;3.50;99.90
15113;DHT22;7657;50.140;7.076;2023-02-25T07:15:33;3.40;99.90
15113;DHT22;7657;50.140;7.076;2023-02-25T07:18:00;3.40;99.90
15113;DHT22;7657;50.140;7.076;2023-02-25T07:20:27;3.40;99.90
15113;DHT22;7657;50.140;7.076;2023-02-25T07:22:54;3.40;99.90
15113;DHT22;7657;50.140;7.076;2023-02-25T07:25:21;3.30;99.90
15113;DHT22;7657;50.140;7.076;2023-02-25T07:27:48;3.20;99.90
15113;DHT22;7657;50.140;7.076;2023-02-25T07:30:15;3.30;99.90
15113;DHT22;7657;50.140;7.076;2023-02-25T07:32:43;3.40;99.90
15113;DHT22;7657;50.140;7.076;2023-02-25T07:35:10;3.40;99.90
15113;DHT22;7657;50.140;7.076;2023-02-25T07:37:37;3.40;99.90
15113;DHT22;7657;50.140;7.076;2023-02-25T07:40:05;3.40;99.90
15113;DHT22;7657;50.140;7.076;2023-02-25T07:42:37;3.40;99.90
15113;DHT22;7657;50.140;7.076;2023-02-25T07:45:05;3.50;99.90
15113;DHT22;7657;50.140;7.076;2023-02-25T07:47:32;3.60;99.90
15113;DHT22;7657;50.140;7.076;2023-02-25T07:50:00;3.70;99.90
15113;DHT22;7657;50.140;7.076;2023-02-25T07:52:27;3.50;99.90
15113;DHT22;7657;50.140;7.076;2023-02-25T07:54:54;3.60;99.90
15113;DHT22;7657;50.140;7.076;2023-02-25T07:57:21;3.80;99.90
15113;DHT22;7657;50.140;7.076;2023-02-25T07:59:48;3.80;99.90
15113;DHT22;7657;50.140;7.076;2023-02-25T08:02:15;3.90;99.90
15113;DHT22;7657;50.140;7.076;2023-02-25T08:04:42;3.90;99.90
15113;DHT22;7657;50.140;7.076;2023-02-25T08:07:11;3.80;99.90
15113;DHT22;7657;50.140;7.076;2023-02-25T08:09:38;3.80;99.90
15113;DHT22;7657;50.140;7.076;2023-02-25T08:12:06;3.90;99.90
15113;DHT22;7657;50.140;7.076;2023-02-25T08:14:33;3.90;99.90
15113;DHT22;7657;50.140;7.076;2023-02-25T08:17:00;3.90;99.90
15113;DHT22;7657;50.140;7.076;2023-02-25T08:19:27;4.00;99.90
15113;DHT22;7657;50.140;7.076;2023-02-25T08:21:54;4.00;99.90
15113;DHT22;7657;50.140;7.076;2023-02-25T08:24:22;4.00;99.90
15113;DHT22;7657;50.140;7.076;2023-02-25T08:26:49;4.00;99.90
15113;DHT22;7657;50.140;7.076;2023-02-25T08:29:16;4.10;99.90
15113;DHT22;7657;50.140;7.076;2023-02-25T08:31:43;4.20;99.90
15113;DHT22;7657;50.140;7.076;2023-02-25T08:34:11;4.10;99.90
15113;DHT22;7657;50.140;7.076;2023-02-25T08:36:39;4.20;99.90
15113;DHT22;7657;50.140;7.076;2023-02-25T08:39:06;4.10;99.90
15113;DHT22;7657;50.140;7.076;2023-02-25T08:41:35;3.90;99.90
15113;DHT22;7657;50.140;7.076;2023-02-25T08:44:02;3.80;99.90
15113;DHT22;7657;50.140;7.076;2023-02-25T08:46:30;3.80;99.90
15113;DHT22;7657;50.140;7.076;2023-02-25T08:48:57;3.90;99.90
15113;DHT22;7657;50.140;7.076;2023-02-25T08:51:26;3.90;99.90
15113;DHT22;7657;50.140;7.076;2023-02-25T08:53:58;4.00;99.90
15113;DHT22;7657;50.140;7.076;2023-02-25T08:56:26;4.10;99.90
15113;DHT22;7657;50.140;7.076;2023-02-25T08:58:54;4.00;99.90
15113;DHT22;7657;50.140;7.076;2023-02-25T09:01:22;4.00;99.90
15113;DHT22;7657;50.140;7.076;2023-02-25T09:03:49;4.00;99.90
15113;DHT22;7657;50.140;7.076;2023-02-25T09:06:21;3.90;99.90
15113;DHT22;7657;50.140;7.076;2023-02-25T09:08:49;4.00;99.90
15113;DHT22;7657;50.140;7.076;2023-02-25T09:11:17;4.10;99.90
15113;DHT22;7657;50.140;7.076;2023-02-25T09:13:44;4.10;99.90
15113;DHT22;7657;50.140;7.076;2023-02-25T09:16:13;4.10;99.90
15113;DHT22;7657;50.140;7.076;2023-02-25T09:18:42;4.10;99.90
15113;DHT22;7657;50.140;7.076;2023-02-25T09:21:10;4.20;99.90
15113;DHT22;7657;50.140;7.076;2023-02-25T09:23:36;4.20;99.90
15113;DHT22;7657;50.140;7.076;2023-02-25T09:26:04;4.10;99.90
15113;DHT22;7657;50.140;7.076;2023-02-25T09:28:31;4.10;99.90
15113;DHT22;7657;50.140;7.076;2023-02-25T09:30:58;4.20;99.90
15113;DHT22;7657;50.140;7.076;2023-02-25T09:33:29;4.10;99.90
15113;DHT22;7657;50.140;7.076;2023-02-25T09:36:03;4.10;99.90
15113;DHT22;7657;50.140;7.076;2023-02-25T09:38:30;4.10;99.90
15113;DHT22;7657;50.140;7.076;2023-02-25T09:40:57;4.20;99.90
15113;DHT22;7657;50.140;7.076;2023-02-25T09:43:26;4.20;99.90
15113;DHT22;7657;50.140;7.076;2023-02-25T09:46:00;4.20;99.90
15113;DHT22;7657;50.140;7.076;2023-02-25T09:48:31;4.40;99.90
15113;DHT22;7657;50.140;7.076;2023-02-25T09:51:03;4.50;99.90
15113;DHT22;7657;50.140;7.076;2023-02-25T09:53:37;4.50;99.90
15113;DHT22;7657;50.140;7.076;2023-02-25T09:56:07;4.40;99.90
15113;DHT22;7657;50.140;7.076;2023-02-25T09:58:37;4.60;99.90
15113;DHT22;7657;50.140;7.076;2023-02-25T10:01:13;4.60;99.90
15113;DHT22;7657;50.140;7.076;2023-02-25T10:03:51;4.70;99.90
15113;DHT22;7657;50.140;7.076;2023-02-25T10:06:25;4.80;99.90
15113;DHT22;7657;50.140;7.076;2023-02-25T10:09:00;4.90;99.90
15113;DHT22;7657;50.140;7.076;2023-02-25T10:11:39;4.80;99.90
15113;DHT22;7657;50.140;7.076;2023-02-25T10:14:17;4.90;99.90
15113;DHT22;7657;50.140;7.076;2023-02-25T10:16:55;5.10;99.90
15113;DHT22;7657;50.140;7.076;2023-02-25T10:19:36;5.20;99.90
15113;DHT22;7657;50.140;7.076;2023-02-25T10:22:25;5.10;99.90
15113;DHT22;7657;50.140;7.076;2023-02-25T10:24:58;5.20;99.90
15113;DHT22;7657;50.140;7.076;2023-02-25T10:27:29;5.20;99.90
15113;DHT22;7657;50.140;7.076;2023-02-25T10:30:00;5.30;99.90
15113;DHT22;7657;50.140;7.076;2023-02-25T10:32:32;5.20;99.90
15113;DHT22;7657;50.140;7.076;2023-02-25T10:35:13;5.40;99.90
15113;DHT22;7657;50.140;7.076;2023-02-25T10:37:41;5.40;99.90
15113;DHT22;7657;50.140;7.076;2023-02-25T10:40:13;5.40;99.90
15113;DHT22;7657;50.140;7.076;2023-02-25T10:42:44;5.40;99.90
15113;DHT22;7657;50.140;7.076;2023-02-25T10:45:18;5.30;99.90
15113;DHT22;7657;50.140;7.076;2023-02-25T10:47:49;5.20;99.90
15113;DHT22;7657;50.140;7.076;2023-02-25T10:50:22;5.20;99.90
15113;DHT22;7657;50.140;7.076;2023-02-25T10:52:57;5.20;99.90
15113;DHT22;7657;50.140;7.076;2023-02-25T10:55:38;5.30;99.90
15113;DHT22;7657;50.140;7.076;2023-02-25T10:58:05;5.40;99.90
15113;DHT22;7657;50.140;7.076;2023-02-25T11:00:54;5.50;99.90
15113;DHT22;7657;50.140;7.076;2023-02-25T11:03:23;5.10;99.90
15113;DHT22;7657;50.140;7.076;2023-02-25T11:06:07;5.00;99.90
15113;DHT22;7657;50.140;7.076;2023-02-25T11:08:35;4.90;99.90
15113;DHT22;7657;50.140;7.076;2023-02-25T11:11:04;4.80;99.90
15113;DHT22;7657;50.140;7.076;2023-02-25T11:13:35;4.80;99.90
15113;DHT22;7657;50.140;7.076;2023-02-25T11:16:06;4.70;99.90
15113;DHT22;7657;50.140;7.076;2023-02-25T11:18:34;4.70;99.90
15113;DHT22;7657;50.140;7.076;2023-02-25T11:21:05;4.80;99.90
15113;DHT22;7657;50.140;7.076;2023-02-25T11:23:34;4.80;99.90
15113;DHT22;7657;50.140;7.076;2023-02-25T11:26:02;4.90;99.90
15113;DHT22;7657;50.140;7.076;2023-02-25T11:28:33;5.00;99.90
15113;DHT22;7657;50.140;7.076;2023-02-25T11:31:09;5.20;99.90
15113;DHT22;7657;50.140;7.076;2023-02-25T11:33:41;5.40;99.90
15113;DHT22;7657;50.140;7.076;2023-02-25T11:36:11;5.40;99.90
15113;DHT22;7657;50.140;7.076;2023-02-25T11:38:40;5.30;99.90
15113;DHT22;7657;50.140;7.076;2023-02-25T11:41:15;5.10;99.90
15113;DHT22;7657;50.140;7.076;2023-02-25T11:43:43;4.90;99.90
15113;DHT22;7657;50.140;7.076;2023-02-25T11:46:13;4.80;99.90
15113;DHT22;7657;50.140;7.076;2023-02-25T11:48:48;4.90;99.90
15113;DHT22;7657;50.140;7.076;2023-02-25T11:51:26;5.10;99.90
15113;DHT22;7657;50.140;7.076;2023-02-25T11:54:03;5.10;99.90
15113;DHT22;7657;50.140;7.076;2023-02-25T11:56:36;5.20;99.90
15113;DHT22;7657;50.140;7.076;2023-02-25T11:59:24;5.30;99.90
15113;DHT22;7657;50.140;7.076;2023-02-25T12:02:11;5.20;99.90
15113;DHT22;7657;50.140;7.076;2023-02-25T12:07:56;4.90;99.90
15113;DHT22;7657;50.140;7.076;2023-02-25T12:10:58;4.60;99.90
15113;DHT22;7657;50.140;7.076;2023-02-25T12:13:48;4.60;99.90
15113;DHT22;7657;50.140;7.076;2023-02-25T12:16:50;4.90;99.90
15113;DHT22;7657;50.140;7.076;2023-02-25T12:20:02;4.80;99.90
15113;DHT22;7657;50.140;7.076;2023-02-25T12:22:55;5.10;99.90
15113;DHT22;7657;50.140;7.076;2023-02-25T12:25:30;4.80;99.90
15113;DHT22;7657;50.140;7.076;2023-02-25T12:31:35;4.50;99.90
15113;DHT22;7657;50.140;7.076;2023-02-25T12:34:28;4.60;99.90
15113;DHT22;7657;50.140;7.076;2023-02-25T12:37:13;4.70;99.90
15113;DHT22;7657;50.140;7.076;2023-02-25T12:40:02;4.70;99.90
15113;DHT22;7657;50.140;7.076;2023-02-25T12:42:44;4.70;99.90
15113;DHT22;7657;50.140;7.076;2023-02-25T12:45:37;4.70;99.90
15113;DHT22;7657;50.140;7.076;2023-02-25T12:51:31;4.70;99.90
15113;DHT22;7657;50.140;7.076;2023-02-25T12:54:20;4.80;99.90
15113;DHT22;7657;50.140;7.076;2023-02-25T12:57:06;4.80;99.90
15113;DHT22;7657;50.140;7.076;2023-02-25T13:03:11;4.90;99.90
15113;DHT22;7657;50.140;7.076;2023-02-25T13:06:18;5.00;99.90
15113;DHT22;7657;50.140;7.076;2023-02-25T13:09:12;5.10;99.90
15113;DHT22;7657;50.140;7.076;2023-02-25T13:11:54;5.10;99.90
15113;DHT22;7657;50.140;7.076;2023-02-25T13:14:43;5.10;99.90
15113;DHT22;7657;50.140;7.076;2023-02-25T13:17:24;4.90;99.90
15113;DHT22;7657;50.140;7.076;2023-02-25T13:20:31;4.80;99.90
15113;DHT22;7657;50.140;7.076;2023-02-25T13:23:11;4.80;99.90
15113;DHT22;7657;50.140;7.076;2023-02-25T13:25:57;4.70;99.90
15113;DHT22;7657;50.140;7.076;2023-02-25T13:28:43;4.70;99.90
15113;DHT22;7657;50.140;7.076;2023-02-25T13:31:19;4.60;99.90
15113;DHT22;7657;50.140;7.076;2023-02-25T13:34:05;4.70;99.90
15113;DHT22;7657;50.140;7.076;2023-02-25T13:36:45;4.70;99.90
15113;DHT22;7657;50.140;7.076;2023-02-25T13:39:34;4.70;99.90
15113;DHT22;7657;50.140;7.076;2023-02-25T13:42:23;4.70;99.90
15113;DHT22;7657;50.140;7.076;2023-02-25T13:48:29;4.80;99.90
15113;DHT22;7657;50.140;7.076;2023-02-25T13:51:10;4.80;99.90
15113;DHT22;7657;50.140;7.076;2023-02-25T13:53:57;4.90;99.90
15113;DHT22;7657;50.140;7.076;2023-02-25T13:56:50;4.80;99.90
15113;DHT22;7657;50.140;7.076;2023-02-25T13:59:45;4.90;99.90
15113;DHT22;7657;50.140;7.076;2023-02-25T14:02:24;4.90;99.90
15113;DHT22;7657;50.140;7.076;2023-02-25T14:05:12;4.90;99.90
15113;DHT22;7657;50.140;7.076;2023-02-25T14:07:49;5.00;99.90
15113;DHT22;7657;50.140;7.076;2023-02-25T14:10:30;5.10;99.90
15113;DHT22;7657;50.140;7.076;2023-02-25T14:13:22;5.20;99.90
15113;DHT22;7657;50.140;7.076;2023-02-25T14:16:00;5.20;99.90
15113;DHT22;7657;50.140;7.076;2023-02-25T14:18:46;5.30;99.90
15113;DHT22;7657;50.140;7.076;2023-02-25T14:24:15;5.20;99.90
15113;DHT22;7657;50.140;7.076;2023-02-25T14:26:54;5.40;99.90
15113;DHT22;7657;50.140;7.076;2023-02-25T14:29:30;5.40;99.90
15113;DHT22;7657;50.140;7.076;2023-02-25T14:32:21;5.50;99.90
15113;DHT22;7657;50.140;7.076;2023-02-25T14:35:11;5.40;99.90
15113;DHT22;7657;50.140;7.076;2023-02-25T14:37:47;5.20;99.90
15113;DHT22;7657;50.140;7.076;2023-02-25T14:40:28;5.00;99.90
15113;DHT22;7657;50.140;7.076;2023-02-25T14:43:25;5.00;99.90
15113;DHT22;7657;50.140;7.076;2023-02-25T14:45:58;4.80;99.90
15113;DHT22;7657;50.140;7.076;2023-02-25T14:48:28;4.90;99.90
15113;DHT22;7657;50.140;7.076;2023-02-25T14:51:17;4.90;99.90
15113;DHT22;7657;50.140;7.076;2023-02-25T14:54:03;4.90;99.90
15113;DHT22;7657;50.140;7.076;2023-02-25T14:56:45;5.00;99.90
15113;DHT22;7657;50.140;7.076;2023-02-25T14:59:39;4.80;99.90
15113;DHT22;7657;50.140;7.076;2023-02-25T15:02:27;5.00;99.90
15113;DHT22;7657;50.140;7.076;2023-02-25T15:05:20;5.10;99.90
15113;DHT22;7657;50.140;7.076;2023-02-25T15:08:00;5.20;99.90
15113;DHT22;7657;50.140;7.076;2023-02-25T15:10:46;5.30;99.90
15113;DHT22;7657;50.140;7.076;2023-02-25T15:13:36;5.00;99.90
15113;DHT22;7657;50.140;7.076;2023-02-25T15:16:31;4.60;99.90
15113;DHT22;7657;50.140;7.076;2023-02-25T15:22:18;4.00;99.90
15113;DHT22;7657;50.140;7.076;2023-02-25T15:24:46;4.00;99.90
15113;DHT22;7657;50.140;7.076;2023-02-25T15:27:41;3.80;99.90
15113;DHT22;7657;50.140;7.076;2023-02-25T15:30:11;4.00;99.90
15113;DHT22;7657;50.140;7.076;2023-02-25T15:32:56;4.00;99.90
15113;DHT22;7657;50.140;7.076;2023-02-25T15:35:51;4.10;99.90
15113;DHT22;7657;50.140;7.076;2023-02-25T15:38:20;4.20;99.90
15113;DHT22;7657;50.140;7.076;2023-02-25T15:40:49;4.10;99.90
15113;DHT22;7657;50.140;7.076;2023-02-25T15:43:40;4.10;99.90
15113;DHT22;7657;50.140;7.076;2023-02-25T15:46:44;4.10;99.90
15113;DHT22;7657;50.140;7.076;2023-02-25T15:49:21;4.10;99.90
15113;DHT22;7657;50.140;7.076;2023-02-25T15:51:56;4.00;99.90
15113;DHT22;7657;50.140;7.076;2023-02-25T15:54:45;4.00;99.90
15113;DHT22;7657;50.140;7.076;2023-02-25T15:57:34;4.10;99.90
15113;DHT22;7657;50.140;7.076;2023-02-25T16:02:55;4.10;99.90
15113;DHT22;7657;50.140;7.076;2023-02-25T16:05:27;4.00;99.90
15113;DHT22;7657;50.140;7.076;2023-02-25T16:08:16;3.90;99.90
15113;DHT22;7657;50.140;7.076;2023-02-25T16:10:46;3.90;99.90
15113;DHT22;7657;50.140;7.076;2023-02-25T16:13:15;3.90;99.90
15113;DHT22;7657;50.140;7.076;2023-02-25T16:15:47;3.90;99.90
15113;DHT22;7657;50.140;7.076;2023-02-25T16:18:19;4.00;99.90
15113;DHT22;7657;50.140;7.076;2023-02-25T16:20:52;4.00;99.90
15113;DHT22;7657;50.140;7.076;2023-02-25T16:23:20;4.00;99.90
15113;DHT22;7657;50.140;7.076;2023-02-25T16:25:56;4.00;99.90
15113;DHT22;7657;50.140;7.076;2023-02-25T16:28:34;3.90;99.90
15113;DHT22;7657;50.140;7.076;2023-02-25T16:31:11;3.90;99.90
15113;DHT22;7657;50.140;7.076;2023-02-25T16:33:47;3.80;99.90
15113;DHT22;7657;50.140;7.076;2023-02-25T16:36:22;3.70;99.90
15113;DHT22;7657;50.140;7.076;2023-02-25T16:38:56;3.70;99.90
15113;DHT22;7657;50.140;7.076;2023-02-25T16:41:24;3.70;99.90
15113;DHT22;7657;50.140;7.076;2023-02-25T16:43:51;3.80;99.90
15113;DHT22;7657;50.140;7.076;2023-02-25T16:46:21;3.80;99.90
15113;DHT22;7657;50.140;7.076;2023-02-25T16:48:51;3.80;99.90
15113;DHT22;7657;50.140;7.076;2023-02-25T16:51:22;3.70;99.90
15113;DHT22;7657;50.140;7.076;2023-02-25T16:53:54;3.70;99.90
15113;DHT22;7657;50.140;7.076;2023-02-25T16:56:24;3.70;99.90
15113;DHT22;7657;50.140;7.076;2023-02-25T16:59:04;3.70;99.90
15113;DHT22;7657;50.140;7.076;2023-02-25T17:01:35;3.70;99.90
15113;DHT22;7657;50.140;7.076;2023-02-25T17:04:12;3.80;99.90
15113;DHT22;7657;50.140;7.076;2023-02-25T17:06:40;3.80;99.90
15113;DHT22;7657;50.140;7.076;2023-02-25T17:09:21;3.70;99.90
15113;DHT22;7657;50.140;7.076;2023-02-25T17:11:52;3.70;99.90